Time;durP1;ratioP1;P1;durP2;ratioP2;P2;SDS_P1;SDS_P2;PMS_P1;PMS_P2;Temp;Humidity;BMP_temperature;BMP_pressure;BME280_temperature;BME280_humidity;BME280_pressure;Samples;Min_cycle;Max_cycle;Signal;HPM_P1;HPM_P2
2022/02/27 00:01:35;;;;;;;;;;;;;;;1.59;100.00;99756.69;1713108;83;24499;-82
2022/02/27 00:04:01;;;;;;;;;;;;;;;1.74;100.00;99752.64;1716631;83;20486;-82
2022/02/27 00:06:27;;;;;;;;;;;;;;;1.84;100.00;99755.95;1717184;82;24909;-82
2022/02/27 00:08:53;;;;;;;;;;;;;;;1.91;100.00;99753.70;1716365;82;22057;-82
2022/02/27 00:11:21;;;;;;;;;;;;;;;1.94;100.00;99755.80;1714832;82;25978;-83
2022/02/27 00:13:47;;;;;;;;;;;;;;;1.98;100.00;99758.74;1716589;82;24523;-83
2022/02/27 00:16:13;;;;;;;;;;;;;;;1.99;100.00;99754.00;1714459;83;20522;-83
2022/02/27 00:18:39;;;;;;;;;;;;;;;1.95;100.00;99754.93;1715304;83;24798;-83
2022/02/27 00:21:06;;;;;;;;;;;;;;;1.93;100.00;99751.94;1714649;83;21981;-83
2022/02/27 00:23:32;;;;;;;;;;;;;;;1.91;100.00;99755.00;1706024;83;26015;-83
2022/02/27 00:25:58;;;;;;;;;;;;;;;1.75;100.00;99752.17;1713746;82;24551;-83
2022/02/27 00:28:24;;;;;;;;;;;;;;;1.77;100.00;99759.04;1714074;83;20312;-83
2022/02/27 00:30:50;;;;;;;;;;;;;;;1.69;100.00;99759.13;1715480;83;24731;-83
2022/02/27 00:33:16;;;;;;;;;;;;;;;1.74;100.00;99756.95;1716989;83;21850;-83
2022/02/27 00:35:42;;;;;;;;;;;;;;;1.83;100.00;99764.13;1713705;82;25982;-82
2022/02/27 00:38:08;;;;;;;;;;;;;;;1.88;100.00;99758.89;1714341;82;24465;-83
2022/02/27 00:40:35;;;;;;;;;;;;;;;1.86;100.00;99765.79;1727865;82;20268;-82
2022/02/27 00:43:01;;;;;;;;;;;;;;;1.87;100.00;99767.50;1718313;82;24822;-82
2022/02/27 00:45:27;;;;;;;;;;;;;;;1.89;100.00;99766.63;1716003;82;21968;-82
2022/02/27 00:47:53;;;;;;;;;;;;;;;1.83;100.00;99766.70;1729102;81;26027;-81
2022/02/27 00:50:19;;;;;;;;;;;;;;;1.79;100.00;99771.93;1714627;82;25242;-81
2022/02/27 00:52:45;;;;;;;;;;;;;;;1.68;100.00;99771.64;1720477;82;20212;-81
2022/02/27 00:55:11;;;;;;;;;;;;;;;1.65;100.00;99770.80;1722485;82;24818;-82
2022/02/27 00:57:37;;;;;;;;;;;;;;;1.62;100.00;99775.58;1720236;82;21941;-82
2022/02/27 01:00:04;;;;;;;;;;;;;;;1.56;100.00;99774.36;1720809;82;26038;-82
2022/02/27 01:02:30;;;;;;;;;;;;;;;1.57;100.00;99772.64;1729538;82;24686;-82
2022/02/27 01:04:56;;;;;;;;;;;;;;;1.61;100.00;99780.75;1720985;82;20818;-82
2022/02/27 01:07:23;;;;;;;;;;;;;;;1.69;100.00;99777.66;1726665;82;25435;-82
2022/02/27 01:09:49;;;;;;;;;;;;;;;1.75;100.00;99777.98;1725576;82;22030;-82
2022/02/27 01:12:15;;;;;;;;;;;;;;;1.75;100.00;99778.84;1720788;82;26000;-82
2022/02/27 01:14:41;;;;;;;;;;;;;;;1.80;100.00;99783.50;1727229;82;25032;-82
2022/02/27 01:17:07;;;;;;;;;;;;;;;1.74;100.00;99784.05;1708535;82;20220;-82
2022/02/27 01:19:34;;;;;;;;;;;;;;;1.64;100.00;99777.69;1724943;82;24724;-82
2022/02/27 01:22:00;;;;;;;;;;;;;;;1.62;100.00;99777.30;1713953;82;21961;-82
2022/02/27 01:24:26;;;;;;;;;;;;;;;1.62;100.00;99782.03;1709977;82;26052;-82
2022/02/27 01:26:53;;;;;;;;;;;;;;;1.67;100.00;99775.52;1712263;82;24405;-81
2022/02/27 01:29:19;;;;;;;;;;;;;;;1.69;100.00;99772.03;1718027;82;20328;-82
2022/02/27 01:31:45;;;;;;;;;;;;;;;1.67;100.00;99774.23;1719472;82;20274;-82
2022/02/27 01:34:11;;;;;;;;;;;;;;;1.68;100.00;99777.23;1722919;82;21941;-82
2022/02/27 01:36:37;;;;;;;;;;;;;;;1.67;100.00;99774.23;1725787;82;25978;-82
2022/02/27 01:39:03;;;;;;;;;;;;;;;1.63;100.00;99769.55;1719576;82;24415;-82
2022/02/27 01:41:30;;;;;;;;;;;;;;;1.53;100.00;99774.81;1712796;81;20278;-82
2022/02/27 01:43:57;;;;;;;;;;;;;;;1.48;100.00;99771.01;1691437;83;25531;-82
2022/02/27 01:46:23;;;;;;;;;;;;;;;1.52;100.00;99774.42;1716265;81;22116;-81
2022/02/27 01:48:49;;;;;;;;;;;;;;;1.52;100.00;99778.30;1716727;83;25924;-82
2022/02/27 01:51:15;;;;;;;;;;;;;;;1.44;100.00;99784.82;1708773;83;24441;-82
2022/02/27 01:53:43;;;;;;;;;;;;;;;1.28;100.00;99778.56;1713299;82;20247;-82
2022/02/27 01:56:09;;;;;;;;;;;;;;;1.13;100.00;99782.17;1705281;83;24746;-81
2022/02/27 01:58:35;;;;;;;;;;;;;;;1.00;100.00;99789.16;1709450;83;21936;-82
2022/02/27 02:01:01;;;;;;;;;;;;;;;0.97;100.00;99781.90;1711557;83;26242;-82
2022/02/27 02:03:27;;;;;;;;;;;;;;;1.02;100.00;99777.55;1713481;82;24427;-82
2022/02/27 02:05:53;;;;;;;;;;;;;;;1.13;100.00;99783.02;1711440;82;20423;-82
2022/02/27 02:08:20;;;;;;;;;;;;;;;1.21;100.00;99775.19;1710431;82;24826;-82
2022/02/27 02:10:46;;;;;;;;;;;;;;;1.27;100.00;99781.57;1712018;83;21953;-82
2022/02/27 02:13:12;;;;;;;;;;;;;;;1.29;100.00;99777.27;1712819;83;25960;-82
2022/02/27 02:15:38;;;;;;;;;;;;;;;1.23;100.00;99773.03;1719407;82;24471;-83
2022/02/27 02:18:06;;;;;;;;;;;;;;;1.30;100.00;99784.56;1712540;83;20274;-82
2022/02/27 02:20:32;;;;;;;;;;;;;;;1.31;100.00;99779.37;1687289;83;24647;-82
2022/02/27 02:22:58;;;;;;;;;;;;;;;1.19;100.00;99783.39;1691457;83;20281;-82
2022/02/27 02:25:24;;;;;;;;;;;;;;;1.18;100.00;99784.26;1714185;83;25976;-82
2022/02/27 02:27:50;;;;;;;;;;;;;;;1.22;100.00;99785.49;1710759;83;24446;-82
2022/02/27 02:30:16;;;;;;;;;;;;;;;1.23;100.00;99786.35;1712395;83;20194;-82
2022/02/27 02:32:47;;;;;;;;;;;;;;;1.28;100.00;99787.59;1714926;82;24934;-82
2022/02/27 02:35:13;;;;;;;;;;;;;;;1.34;100.00;99790.10;1716026;83;21978;-82
2022/02/27 02:37:39;;;;;;;;;;;;;;;1.38;100.00;99795.64;1709802;83;20965;-81
2022/02/27 02:40:06;;;;;;;;;;;;;;;1.33;100.00;99792.25;1712891;82;24382;-82
2022/02/27 02:42:44;;;;;;;;;;;;;;;1.18;100.00;99791.99;1713628;82;20169;-81
2022/02/27 02:45:11;;;;;;;;;;;;;;;1.13;100.00;99790.76;1713608;83;24790;-82
2022/02/27 02:47:42;;;;;;;;;;;;;;;1.22;100.00;99791.08;1712924;83;21451;-82
2022/02/27 02:50:09;;;;;;;;;;;;;;;1.10;100.00;99792.49;1714074;82;26638;-82
2022/02/27 02:52:35;;;;;;;;;;;;;;;1.02;100.00;99793.88;1712978;83;24519;-82
2022/02/27 02:55:03;;;;;;;;;;;;;;;0.96;100.00;99774.60;1711150;83;20213;-82
2022/02/27 02:57:29;;;;;;;;;;;;;;;1.05;100.00;99794.27;1713102;83;24730;-81
2022/02/27 02:59:55;;;;;;;;;;;;;;;0.92;100.00;99797.41;1710174;83;21920;-82
2022/02/27 03:02:21;;;;;;;;;;;;;;;0.94;100.00;99790.94;1711284;82;26057;-81
2022/02/27 03:04:48;;;;;;;;;;;;;;;0.95;100.00;99792.65;1713180;83;24389;-81
2022/02/27 03:07:15;;;;;;;;;;;;;;;0.98;100.00;99785.77;1714941;82;20325;-81
2022/02/27 03:09:41;;;;;;;;;;;;;;;1.04;100.00;99788.25;1713627;82;24733;-81
2022/02/27 03:12:07;;;;;;;;;;;;;;;1.07;100.00;99789.96;1714287;83;22048;-81
2022/02/27 03:14:33;;;;;;;;;;;;;;;1.00;100.00;99799.90;1712006;83;25931;-81
2022/02/27 03:16:59;;;;;;;;;;;;;;;0.91;100.00;99799.56;1712333;82;24429;-82
2022/02/27 03:19:26;;;;;;;;;;;;;;;0.88;100.00;99800.00;1714730;83;20472;-82
2022/02/27 03:21:52;;;;;;;;;;;;;;;0.96;100.00;99796.51;1713500;83;24866;-80
2022/02/27 03:24:18;;;;;;;;;;;;;;;0.98;100.00;99801.23;1714821;83;22022;-81
2022/02/27 03:26:45;;;;;;;;;;;;;;;0.91;100.00;99801.28;1711637;83;26029;-81
2022/02/27 03:29:11;;;;;;;;;;;;;;;0.74;100.00;99807.88;1714167;82;24550;-82
2022/02/27 03:31:38;;;;;;;;;;;;;;;0.60;100.00;99816.16;1716029;82;20254;-82
2022/02/27 03:34:04;;;;;;;;;;;;;;;0.52;100.00;99808.48;1715158;82;24793;-81
2022/02/27 03:36:30;;;;;;;;;;;;;;;0.66;100.00;99811.78;1711920;82;22067;-80
2022/02/27 03:38:56;;;;;;;;;;;;;;;0.80;100.00;99806.53;1713851;83;25940;-81
2022/02/27 03:41:22;;;;;;;;;;;;;;;0.90;100.00;99812.02;1723636;82;20298;-81
2022/02/27 03:43:48;;;;;;;;;;;;;;;1.00;100.00;99820.52;1725875;82;20208;-82
2022/02/27 03:46:17;;;;;;;;;;;;;;;1.08;100.00;99817.02;1722498;82;25596;-82
2022/02/27 03:48:43;;;;;;;;;;;;;;;1.07;100.00;99818.31;1714044;82;22166;-82
2022/02/27 03:51:09;;;;;;;;;;;;;;;1.11;100.00;99817.41;1722640;82;25974;-82
2022/02/27 03:53:37;;;;;;;;;;;;;;;1.18;100.00;99824.22;1718289;82;25352;-82
2022/02/27 03:56:12;;;;;;;;;;;;;;;1.17;100.00;99823.80;1692407;82;20197;-82
2022/02/27 03:58:38;;;;;;;;;;;;;;;1.03;100.00;99819.22;1714476;82;24743;-82
2022/02/27 04:01:05;;;;;;;;;;;;;;;0.93;100.00;99815.02;1718509;82;22049;-82
2022/02/27 04:03:31;;;;;;;;;;;;;;;0.76;100.00;99822.90;1721871;82;26055;-82
2022/02/27 04:05:57;;;;;;;;;;;;;;;0.61;100.00;99824.28;1723167;82;24432;-82
2022/02/27 04:08:23;;;;;;;;;;;;;;;0.49;100.00;99825.25;1714271;82;20219;-82
2022/02/27 04:10:49;;;;;;;;;;;;;;;0.40;100.00;99826.16;1717149;82;24601;-82
2022/02/27 04:13:15;;;;;;;;;;;;;;;0.33;100.00;99824.91;1721900;82;22017;-82
2022/02/27 04:15:42;;;;;;;;;;;;;;;0.30;100.00;99824.94;1717008;82;26740;-82
2022/02/27 04:18:08;;;;;;;;;;;;;;;0.28;100.00;99824.08;1721889;82;24499;-82
2022/02/27 04:20:34;;;;;;;;;;;;;;;0.29;100.00;99824.08;1721795;82;20326;-82
2022/02/27 04:23:00;;;;;;;;;;;;;;;0.29;100.00;99825.37;1719835;82;25508;-82
2022/02/27 04:25:26;;;;;;;;;;;;;;;0.32;100.00;99821.94;1730069;82;22010;-82
2022/02/27 04:27:57;;;;;;;;;;;;;;;0.35;100.00;99818.89;1719551;82;21053;-82
2022/02/27 04:30:26;;;;;;;;;;;;;;;0.33;100.00;99815.46;1721179;82;24519;-82
2022/02/27 04:32:52;;;;;;;;;;;;;;;0.29;100.00;99821.51;1720881;82;20215;-83
2022/02/27 04:35:18;;;;;;;;;;;;;;;0.21;100.00;99816.00;1728003;82;24804;-83
2022/02/27 04:37:44;;;;;;;;;;;;;;;0.18;100.00;99820.72;1718764;82;22012;-82
2022/02/27 04:40:11;;;;;;;;;;;;;;;0.14;100.00;99818.17;1715276;82;26034;-83
2022/02/27 04:42:37;;;;;;;;;;;;;;;0.22;100.00;99821.11;1719025;82;24595;-82
2022/02/27 04:45:07;;;;;;;;;;;;;;;0.24;100.00;99815.53;1712552;82;20684;-82
2022/02/27 04:47:33;;;;;;;;;;;;;;;0.33;100.00;99815.89;1714598;82;25700;-82
2022/02/27 04:49:59;;;;;;;;;;;;;;;0.35;100.00;99816.75;1722088;82;20301;-82
2022/02/27 04:52:27;;;;;;;;;;;;;;;0.31;100.00;99819.79;1718603;82;25976;-82
2022/02/27 04:54:53;;;;;;;;;;;;;;;0.33;100.00;99818.04;1717826;82;25140;-82
2022/02/27 04:57:19;;;;;;;;;;;;;;;0.40;100.00;99817.57;1714867;82;20273;-82
2022/02/27 04:59:45;;;;;;;;;;;;;;;0.36;100.00;99821.90;1716190;82;24929;-82
2022/02/27 05:02:11;;;;;;;;;;;;;;;0.35;100.00;99821.90;1712984;82;21915;-81
2022/02/27 05:04:37;;;;;;;;;;;;;;;0.56;100.00;99823.03;1711649;82;26060;-80
2022/02/27 05:07:04;;;;;;;;;;;;;;;0.64;100.00;99822.55;1712195;82;24460;-82
2022/02/27 05:09:31;;;;;;;;;;;;;;;0.54;100.00;99826.50;1715997;82;20720;-82
2022/02/27 05:11:57;;;;;;;;;;;;;;;0.43;100.00;99824.00;1718534;82;24802;-82
2022/02/27 05:14:23;;;;;;;;;;;;;;;0.36;100.00;99822.33;1715063;82;22038;-82
2022/02/27 05:16:49;;;;;;;;;;;;;;;0.29;100.00;99827.08;1716667;82;26049;-82
2022/02/27 05:19:15;;;;;;;;;;;;;;;0.20;100.00;99828.01;1709107;82;24437;-82
2022/02/27 05:21:41;;;;;;;;;;;;;;;0.12;100.00;99836.19;1723297;82;20164;-82
2022/02/27 05:24:07;;;;;;;;;;;;;;;0.09;100.00;99831.50;1715916;82;24775;-82
2022/02/27 05:26:34;;;;;;;;;;;;;;;0.11;100.00;99837.51;1718162;82;22187;-82
2022/02/27 05:29:00;;;;;;;;;;;;;;;0.03;100.00;99837.53;1706609;82;26032;-82
2022/02/27 05:31:26;;;;;;;;;;;;;;;-0.04;100.00;99835.84;1713338;82;24627;-83
2022/02/27 05:33:52;;;;;;;;;;;;;;;-0.11;100.00;99837.59;1716453;82;20270;-83
2022/02/27 05:36:18;;;;;;;;;;;;;;;-0.16;100.00;99838.47;1718671;82;24726;-83
2022/02/27 05:38:44;;;;;;;;;;;;;;;-0.18;100.00;99842.78;1718293;82;21948;-83
2022/02/27 05:41:10;;;;;;;;;;;;;;;-0.21;100.00;99845.35;1717740;82;21169;-83
2022/02/27 05:43:36;;;;;;;;;;;;;;;-0.28;100.00;99850.12;1716056;82;20237;-81
2022/02/27 05:46:02;;;;;;;;;;;;;;;-0.30;100.00;99854.40;1716473;82;20220;-82
2022/02/27 05:48:28;;;;;;;;;;;;;;;-0.29;100.00;99861.27;1713672;82;24725;-82
2022/02/27 05:50:54;;;;;;;;;;;;;;;-0.33;100.00;99855.28;1708029;82;20381;-81
2022/02/27 05:53:20;;;;;;;;;;;;;;;-0.38;100.00;99860.02;1710913;82;26735;-82
2022/02/27 05:55:56;;;;;;;;;;;;;;;-0.47;100.00;99863.45;1719677;82;25088;-82
2022/02/27 05:58:17;;;;;;;;;;;;;;;-0.56;100.00;99863.48;1717218;82;20202;-83
2022/02/27 06:00:43;;;;;;;;;;;;;;;-0.56;100.00;99866.92;1721896;82;25431;-82
2022/02/27 06:03:09;;;;;;;;;;;;;;;-0.52;100.00;99864.76;1712224;82;22050;-82
2022/02/27 06:05:35;;;;;;;;;;;;;;;-0.48;100.00;99875.88;1717688;82;26190;-82
2022/02/27 06:08:01;;;;;;;;;;;;;;;-0.46;100.00;99869.03;1714864;82;24480;-82
2022/02/27 06:10:28;;;;;;;;;;;;;;;-0.49;100.00;99869.02;1707413;82;20216;-82
2022/02/27 06:12:54;;;;;;;;;;;;;;;-0.53;100.00;99865.61;1718850;82;24734;-83
2022/02/27 06:15:20;;;;;;;;;;;;;;;-0.58;100.00;99868.62;1718689;82;21814;-82
2022/02/27 06:17:46;;;;;;;;;;;;;;;-0.61;100.00;99869.93;1722002;82;25960;-82
2022/02/27 06:20:12;;;;;;;;;;;;;;;-0.61;100.00;99875.07;1715817;82;24461;-82
2022/02/27 06:22:41;;;;;;;;;;;;;;;-0.63;100.00;99880.63;1723609;82;20447;-82
2022/02/27 06:25:07;;;;;;;;;;;;;;;-0.61;100.00;99884.06;1717522;81;25471;-81
2022/02/27 06:27:33;;;;;;;;;;;;;;;-0.60;100.00;99879.33;1722845;82;21969;-81
2022/02/27 06:30:01;;;;;;;;;;;;;;;-0.61;100.00;99882.78;1720019;82;20910;-82
2022/02/27 06:32:27;;;;;;;;;;;;;;;-0.62;100.00;99883.64;1713127;82;24405;-82
2022/02/27 06:34:53;;;;;;;;;;;;;;;-0.59;100.00;99893.90;1719013;82;20306;-82
2022/02/27 06:37:19;;;;;;;;;;;;;;;-0.57;100.00;99900.33;1731801;80;24864;-81
2022/02/27 06:39:45;;;;;;;;;;;;;;;-0.61;100.00;99899.49;1710883;82;22044;-82
2022/02/27 06:42:12;;;;;;;;;;;;;;;-0.65;100.00;99897.76;1712861;82;26051;-81
2022/02/27 06:44:38;;;;;;;;;;;;;;;-0.66;100.00;99906.78;1719470;82;25086;-81
2022/02/27 06:47:04;;;;;;;;;;;;;;;-0.70;100.00;99914.91;1720290;82;20276;-82
2022/02/27 06:49:30;;;;;;;;;;;;;;;-0.74;100.00;99919.63;1715431;82;24819;-81
2022/02/27 06:51:56;;;;;;;;;;;;;;;-0.73;100.00;99929.06;1713729;82;21974;-81
2022/02/27 06:54:23;;;;;;;;;;;;;;;-0.72;100.00;99928.21;1714846;82;26049;-82
2022/02/27 06:56:50;;;;;;;;;;;;;;;-0.63;100.00;99932.05;1725399;82;24438;-82
2022/02/27 06:59:16;;;;;;;;;;;;;;;-0.54;100.00;99932.45;1720920;82;20459;-82
2022/02/27 07:01:43;;;;;;;;;;;;;;;-0.48;100.00;99930.73;1713100;82;24742;-82
2022/02/27 07:04:09;;;;;;;;;;;;;;;-0.45;100.00;99928.60;1713776;82;22107;-83
2022/02/27 07:06:35;;;;;;;;;;;;;;;-0.44;100.00;99932.43;1714357;82;26110;-82
2022/02/27 07:09:01;;;;;;;;;;;;;;;-0.38;100.00;99933.31;1716210;82;24460;-81
2022/02/27 07:11:27;;;;;;;;;;;;;;;-0.32;100.00;99938.41;1718566;82;20250;-82
2022/02/27 07:13:54;;;;;;;;;;;;;;;-0.24;100.00;99940.55;1714262;82;25491;-82
2022/02/27 07:16:25;;;;;;;;;;;;;;;-0.22;100.00;99934.98;1719070;82;22301;-81
2022/02/27 07:18:49;;;;;;;;;;;;;;;-0.26;100.00;99942.26;1716533;82;26028;-82
2022/02/27 07:21:16;;;;;;;;;;;;;;;-0.26;100.00;99948.27;1713604;82;24464;-82
2022/02/27 07:23:42;;;;;;;;;;;;;;;-0.27;100.00;99944.44;1717140;82;20481;-82
2022/02/27 07:26:08;;;;;;;;;;;;;;;-0.23;100.00;99951.27;1718213;82;24812;-82
2022/02/27 07:28:34;;;;;;;;;;;;;;;-0.23;100.00;99955.13;1718503;82;22044;-82
2022/02/27 07:31:02;;;;;;;;;;;;;;;-0.24;100.00;99953.41;1722536;82;26009;-82
2022/02/27 07:33:28;;;;;;;;;;;;;;;-0.23;100.00;99962.84;1719287;82;24384;-82
2022/02/27 07:35:54;;;;;;;;;;;;;;;-0.18;100.00;99959.84;1719910;82;20315;-83
2022/02/27 07:38:20;;;;;;;;;;;;;;;-0.18;100.00;99960.70;1715607;83;25346;-82
2022/02/27 07:40:48;;;;;;;;;;;;;;;-0.15;100.00;99960.67;1725054;82;22299;-82
2022/02/27 07:43:15;;;;;;;;;;;;;;;-0.07;100.00;99958.95;1724147;82;26000;-83
2022/02/27 07:45:43;;;;;;;;;;;;;;;0.05;100.00;99954.20;1696236;83;20161;-82
2022/02/27 07:48:09;;;;;;;;;;;;;;;0.18;100.00;99958.85;1715746;83;20232;-82
2022/02/27 07:50:35;;;;;;;;;;;;;;;0.22;100.00;99958.83;1716930;83;24742;-82
2022/02/27 07:53:01;;;;;;;;;;;;;;;0.32;100.00;99955.39;1713380;82;21924;-83
2022/02/27 07:55:27;;;;;;;;;;;;;;;0.49;100.00;99955.73;1717112;83;26019;-82
2022/02/27 07:57:53;;;;;;;;;;;;;;;0.56;100.00;99952.24;1713277;82;24475;-83
2022/02/27 08:00:19;;;;;;;;;;;;;;;0.60;100.00;99953.96;1713984;83;20246;-83
2022/02/27 08:02:46;;;;;;;;;;;;;;;0.63;100.00;99955.22;1711982;83;24714;-82
2022/02/27 08:05:12;;;;;;;;;;;;;;;0.69;100.00;99951.32;1718584;83;21943;-83
2022/02/27 08:07:41;;;;;;;;;;;;;;;0.76;100.00;99951.26;1714829;82;26025;-82
2022/02/27 08:10:10;;;;;;;;;;;;;;;0.73;100.00;99945.28;1709715;83;24633;-83
2022/02/27 08:12:35;;;;;;;;;;;;;;;0.67;100.00;99947.45;1704489;83;20230;-83
2022/02/27 08:15:02;;;;;;;;;;;;;;;0.66;100.00;99947.03;1715003;82;24835;-83
2022/02/27 08:17:28;;;;;;;;;;;;;;;0.63;100.00;99947.06;1734299;82;21958;-83
2022/02/27 08:19:54;;;;;;;;;;;;;;;0.60;100.00;99948.81;1741838;82;26010;-83
2022/02/27 08:22:25;;;;;;;;;;;;;;;0.62;100.00;99949.20;1734909;81;25146;-86
2022/02/27 08:24:52;;;;;;;;;;;;;;;0.64;100.00;99951.78;1689969;84;20215;-86
2022/02/27 08:27:18;;;;;;;;;;;;;;;0.64;100.00;99948.78;1728682;82;24723;-87
2022/02/27 08:29:44;;;;;;;;;;;;;;;0.67;100.00;99954.33;1704893;84;22034;-84
2022/02/27 08:32:10;;;;;;;;;;;;;;;0.72;100.00;99954.73;1705134;83;25974;-83
2022/02/27 08:34:36;;;;;;;;;;;;;;;0.73;100.00;99942.27;1705631;83;24535;-83
2022/02/27 08:37:03;;;;;;;;;;;;;;;0.77;100.00;99947.82;1717823;82;20250;-85
2022/02/27 08:39:29;;;;;;;;;;;;;;;0.80;100.00;99949.11;1710709;83;24812;-86
2022/02/27 08:41:56;;;;;;;;;;;;;;;0.86;100.00;99943.48;1701045;82;22033;-83
2022/02/27 08:44:22;;;;;;;;;;;;;;;0.89;100.00;99946.89;1700885;83;26040;-82
2022/02/27 08:46:50;;;;;;;;;;;;;;;0.93;100.00;99950.33;1714663;82;24535;-86
2022/02/27 08:49:16;;;;;;;;;;;;;;;0.97;100.00;99945.13;1715102;83;20326;-83
2022/02/27 08:51:45;;;;;;;;;;;;;;;1.01;100.00;99939.08;1684845;83;20349;-83
2022/02/27 08:54:12;;;;;;;;;;;;;;;1.06;100.00;99946.77;1692129;83;22049;-85
2022/02/27 08:56:39;;;;;;;;;;;;;;;1.10;100.00;99942.86;1692109;82;26701;-83
2022/02/27 08:59:11;;;;;;;;;;;;;;;1.17;100.00;99939.37;1708317;82;24507;-86
2022/02/27 09:01:37;;;;;;;;;;;;;;;1.22;100.00;99936.33;1706341;82;20603;-87
2022/02/27 09:04:03;;;;;;;;;;;;;;;1.35;100.00;99942.25;1705541;82;24805;-86
2022/02/27 09:06:29;;;;;;;;;;;;;;;1.47;100.00;99936.98;1705147;83;22043;-83
2022/02/27 09:08:55;;;;;;;;;;;;;;;1.51;100.00;99939.09;1711079;83;26069;-86
2022/02/27 09:11:21;;;;;;;;;;;;;;;1.60;100.00;99941.14;1709835;83;24386;-87
2022/02/27 09:13:48;;;;;;;;;;;;;;;1.68;100.00;99934.20;1709240;83;20323;-86
2022/02/27 09:16:15;;;;;;;;;;;;;;;1.80;100.00;99938.81;1739534;81;25557;-87
2022/02/27 09:18:41;;;;;;;;;;;;;;;1.79;100.00;99939.25;1739052;82;21995;-87
2022/02/27 09:21:09;;;;;;;;;;;;;;;1.80;100.00;99940.93;1726794;82;22148;-83
2022/02/27 09:23:35;;;;;;;;;;;;;;;1.76;100.00;99936.68;1684147;83;24444;-86
2022/02/27 09:26:02;;;;;;;;;;;;;;;1.78;100.00;99943.13;1699138;83;20305;-86
2022/02/27 09:28:28;;;;;;;;;;;;;;;1.79;100.00;99941.83;1694931;83;24751;-85
2022/02/27 09:30:55;;;;;;;;;;;;;;;1.85;100.00;99943.06;1713887;82;22024;-87
2022/02/27 09:33:21;;;;;;;;;;;;;;;1.89;100.00;99944.73;1687542;84;25989;-87
2022/02/27 09:35:47;;;;;;;;;;;;;;;1.92;100.00;99939.52;1694043;83;24461;-84
2022/02/27 09:38:13;;;;;;;;;;;;;;;1.94;100.00;99932.63;1695935;83;20282;-86
2022/02/27 09:40:39;;;;;;;;;;;;;;;1.91;100.00;99922.78;1722611;82;24659;-84
2022/02/27 09:43:05;;;;;;;;;;;;;;;2.01;100.00;99935.56;1736854;81;22101;-86
2022/02/27 09:45:31;;;;;;;;;;;;;;;2.04;100.00;99931.64;1736859;80;25970;-87
2022/02/27 09:48:01;;;;;;;;;;;;;;;2.10;100.00;99935.45;1695295;83;25594;-86
2022/02/27 09:50:29;;;;;;;;;;;;;;;2.19;100.00;99936.19;1700481;83;20352;-86
2022/02/27 09:52:55;;;;;;;;;;;;;;;2.30;100.00;99934.33;1691350;82;24799;-86
2022/02/27 09:55:22;;;;;;;;;;;;;;;2.38;100.00;99932.09;1721326;82;22015;-87
2022/02/27 09:57:49;;;;;;;;;;;;;;;2.41;100.00;99930.75;1700352;83;26202;-83
2022/02/27 10:00:17;;;;;;;;;;;;;;;2.42;100.00;99936.77;1711534;83;24820;-83
2022/02/27 10:03:03;;;;;;;;;;;;;;;2.44;100.00;99937.61;1711370;83;20296;-86
2022/02/27 10:05:29;;;;;;;;;;;;;;;2.49;100.00;99930.22;1710190;83;24724;-84
2022/02/27 10:07:59;;;;;;;;;;;;;;;2.52;100.00;99931.45;1698367;83;21929;-84
2022/02/27 10:10:25;;;;;;;;;;;;;;;2.58;100.00;99924.50;1674485;84;26784;-84
2022/02/27 10:12:57;;;;;;;;;;;;;;;2.64;100.00;99922.69;1731971;82;23741;-86
2022/02/27 10:15:23;;;;;;;;;;;;;;;2.68;100.00;99916.59;1709634;82;20244;-85
2022/02/27 10:17:51;;;;;;;;;;;;;;;2.74;100.00;99917.80;1728188;82;25358;-83
2022/02/27 10:20:22;;;;;;;;;;;;;;;2.80;100.00;99916.42;1727705;82;21957;-83
2022/02/27 10:22:56;;;;;;;;;;;;;;;2.86;100.00;99909.87;1727126;81;25963;-86
2022/02/27 10:25:23;;;;;;;;;;;;;;;2.92;100.00;99907.63;1724574;81;24772;-86
2022/02/27 10:27:52;;;;;;;;;;;;;;;2.98;100.00;99898.92;1731852;81;20181;-86
2022/02/27 10:30:29;;;;;;;;;;;;;;;3.07;100.00;99903.50;1704272;82;24954;-86
2022/02/27 10:32:59;;;;;;;;;;;;;;;3.13;100.00;99903.84;1735985;82;21799;-86
2022/02/27 10:35:32;;;;;;;;;;;;;;;3.19;100.00;99901.16;1724497;82;26077;-82
2022/02/27 10:37:58;;;;;;;;;;;;;;;3.23;100.00;99901.08;1708130;82;24464;-83
2022/02/27 10:40:31;;;;;;;;;;;;;;;3.29;100.00;99900.12;1708910;82;20942;-86
2022/02/27 10:42:58;;;;;;;;;;;;;;;3.36;100.00;99896.55;1730920;82;24757;-86
2022/02/27 10:45:25;;;;;;;;;;;;;;;3.43;100.00;99893.42;1702754;82;21985;-87
2022/02/27 10:47:54;;;;;;;;;;;;;;;3.51;100.00;99883.34;1728352;80;26018;-87
2022/02/27 10:50:20;;;;;;;;;;;;;;;3.62;100.00;99878.81;1699528;83;24526;-87
2022/02/27 10:52:46;;;;;;;;;;;;;;;3.70;100.00;99873.51;1738595;82;20534;-85
2022/02/27 10:55:12;;;;;;;;;;;;;;;3.71;100.00;99868.28;1736487;81;24806;-83
2022/02/27 10:57:40;;;;;;;;;;;;;;;3.74;100.00;99868.23;1681149;83;21904;-86
2022/02/27 11:00:25;;;;;;;;;;;;;;;3.74;100.00;99869.97;1699973;83;26819;-86
2022/02/27 11:02:53;;;;;;;;;;;;;;;3.77;100.00;99858.25;1698120;83;24544;-85
2022/02/27 11:05:20;;;;;;;;;;;;;;;3.88;100.00;99854.14;1737460;81;20209;-86
2022/02/27 11:07:48;;;;;;;;;;;;;;;3.91;100.00;99856.25;1694472;82;24744;-87
2022/02/27 11:10:15;;;;;;;;;;;;;;;3.95;100.00;99855.73;1712762;82;21987;-87
2022/02/27 11:12:47;;;;;;;;;;;;;;;3.93;100.00;99859.64;1734195;80;26053;-84
2022/02/27 11:15:15;;;;;;;;;;;;;;;3.90;100.00;99857.56;1716165;82;24701;-83
2022/02/27 11:17:44;;;;;;;;;;;;;;;3.86;100.00;99849.46;1707695;82;20253;-82
2022/02/27 11:20:11;;;;;;;;;;;;;;;3.95;100.00;99849.27;1716520;83;24999;-83
2022/02/27 11:22:38;;;;;;;;;;;;;;;4.11;100.00;99848.91;1709034;83;21945;-82
2022/02/27 11:25:08;;;;;;;;;;;;;;;4.13;100.00;99850.19;1716362;82;26032;-87
2022/02/27 11:27:35;;;;;;;;;;;;;;;4.04;100.00;99846.03;1717048;82;24512;-83
2022/02/27 11:30:01;;;;;;;;;;;;;;;4.00;100.00;99843.55;1708813;83;20573;-87
2022/02/27 11:32:27;;;;;;;;;;;;;;;4.04;100.00;99842.59;1714830;82;24865;-83
2022/02/27 11:34:54;;;;;;;;;;;;;;;4.10;100.00;99841.16;1715943;83;21943;-82
2022/02/27 11:37:40;;;;;;;;;;;;;;;4.12;100.00;99837.67;1715173;83;26150;-82
2022/02/27 11:40:28;;;;;;;;;;;;;;;4.14;100.00;99832.03;1711658;83;24598;-86
2022/02/27 11:43:02;;;;;;;;;;;;;;;4.24;100.00;99835.27;1708191;83;20241;-86
2022/02/27 11:45:32;;;;;;;;;;;;;;;4.34;100.00;99826.39;1698923;83;24960;-84
2022/02/27 11:47:58;;;;;;;;;;;;;;;4.33;100.00;99831.61;1694894;83;22066;-85
2022/02/27 11:50:26;;;;;;;;;;;;;;;4.26;100.00;99827.44;1694458;83;25942;-86
2022/02/27 11:52:55;;;;;;;;;;;;;;;4.23;100.00;99821.04;1697189;83;24461;-87
2022/02/27 11:55:35;;;;;;;;;;;;;;;4.30;100.00;99817.00;1705737;83;20366;-87
2022/02/27 11:58:01;;;;;;;;;;;;;;;4.34;100.00;99816.03;1627972;85;25566;-87
2022/02/27 12:00:37;;;;;;;;;;;;;;;4.29;100.00;99807.95;1711970;82;20818;-83
2022/02/27 12:03:06;;;;;;;;;;;;;;;4.33;100.00;99810.43;1677724;83;26071;-83
2022/02/27 12:05:43;;;;;;;;;;;;;;;4.41;100.00;99801.20;1690519;83;24568;-85
2022/02/27 12:08:10;;;;;;;;;;;;;;;4.53;100.00;99803.04;1699402;84;20259;-87
2022/02/27 12:10:38;;;;;;;;;;;;;;;4.59;100.00;99799.02;1698097;84;24735;-86
2022/02/27 12:13:22;;;;;;;;;;;;;;;4.69;100.00;99792.33;1699338;84;21443;-83
2022/02/27 12:15:50;;;;;;;;;;;;;;;4.78;100.00;99792.95;1694006;84;25962;-86
2022/02/27 12:18:19;;;;;;;;;;;;;;;4.85;100.00;99787.17;1692068;84;25550;-82
2022/02/27 12:20:51;;;;;;;;;;;;;;;4.92;100.00;99788.69;1687388;83;20296;-88
2022/02/27 12:23:31;;;;;;;;;;;;;;;4.96;100.00;99788.57;1687642;84;24853;-83
2022/02/27 12:26:02;;;;;;;;;;;;;;;4.99;100.00;99782.47;1703220;83;21967;-82
2022/02/27 12:28:49;;;;;;;;;;;;;;;5.06;100.00;99777.54;1695132;84;26038;-82
2022/02/27 12:31:19;;;;;;;;;;;;;;;5.18;100.00;99783.71;1684791;83;25047;-82
2022/02/27 12:33:47;;;;;;;;;;;;;;;5.26;100.00;99772.66;1693289;83;20626;-87
2022/02/27 12:36:23;;;;;;;;;;;;;;;5.37;100.00;99773.67;1697426;84;24933;-85
2022/02/27 12:38:51;;;;;;;;;;;;;;;5.46;100.00;99770.80;1666373;84;21837;-85
2022/02/27 12:41:18;;;;;;;;;;;;;;;5.47;100.00;99775.97;1700759;84;26891;-87
2022/02/27 12:43:46;;;;;;;;;;;;;;;5.36;100.00;99774.11;1700381;82;24326;-86
2022/02/27 12:46:12;;;;;;;;;;;;;;;5.27;100.00;99769.18;1716234;83;20165;-86